createdAt,value
2018-05-31T00:00:38.156Z,23.12
2018-05-31T00:01:38.182Z,23.05
2018-05-31T00:02:38.358Z,23.05
2018-05-31T00:03:38.236Z,22.98
2018-05-31T00:04:38.260Z,22.87
2018-05-31T00:05:38.287Z,22.83
2018-05-31T00:06:38.314Z,22.84
2018-05-31T00:07:38.340Z,22.70
2018-05-31T00:08:38.368Z,22.73
2018-05-31T00:09:38.391Z,22.68
2018-05-31T00:10:38.419Z,22.66
2018-05-31T00:11:38.444Z,22.62
2018-05-31T00:12:38.468Z,22.63
2018-05-31T00:13:38.495Z,22.69
2018-05-31T00:14:38.521Z,22.63
2018-05-31T00:15:38.597Z,22.53
2018-05-31T00:16:38.572Z,22.57
2018-05-31T00:17:38.599Z,22.66
2018-05-31T00:18:38.625Z,22.68
2018-05-31T00:19:38.651Z,22.69
2018-05-31T00:20:38.878Z,22.70
2018-05-31T00:21:38.702Z,22.68
2018-05-31T00:22:38.729Z,22.80
2018-05-31T00:23:38.910Z,22.73
2018-05-31T00:24:38.780Z,22.65
2018-05-31T00:25:38.819Z,22.70
2018-05-31T00:26:38.904Z,22.73
2018-05-31T00:27:38.858Z,22.70
2018-05-31T00:28:38.885Z,22.63
2018-05-31T00:29:38.910Z,22.57
2018-05-31T00:30:38.937Z,22.48
2018-05-31T00:31:38.964Z,22.55
2018-05-31T00:32:38.988Z,22.53
2018-05-31T00:33:39.013Z,22.44
2018-05-31T00:34:39.043Z,22.54
2018-05-31T00:35:39.066Z,22.45
2018-05-31T00:36:39.091Z,22.48
2018-05-31T00:37:39.118Z,22.44
2018-05-31T00:38:39.143Z,22.57
2018-05-31T00:39:39.171Z,22.59
2018-05-31T00:40:39.194Z,22.55
2018-05-31T00:41:39.222Z,22.57
2018-05-31T00:42:39.247Z,22.57
2018-05-31T00:43:39.273Z,22.55
2018-05-31T00:44:39.299Z,22.55
2018-05-31T00:45:39.324Z,22.54
2018-05-31T00:46:39.351Z,22.59
2018-05-31T00:47:39.376Z,22.59
2018-05-31T00:48:39.402Z,22.70
2018-05-31T00:49:39.429Z,22.68
2018-05-31T00:50:39.454Z,22.69
2018-05-31T00:51:39.480Z,22.55
2018-05-31T00:52:39.505Z,22.65
2018-05-31T00:53:39.532Z,22.55
2018-05-31T00:54:39.557Z,22.70
2018-05-31T00:55:39.584Z,22.68
2018-05-31T00:56:39.610Z,22.55
2018-05-31T00:57:39.641Z,22.47
2018-05-31T00:58:39.662Z,22.43
2018-05-31T00:59:39.686Z,22.43
2018-05-31T01:00:39.715Z,22.39
2018-05-31T01:01:39.739Z,22.36
2018-05-31T01:02:39.764Z,22.32
2018-05-31T01:03:39.791Z,22.28
2018-05-31T01:04:39.817Z,22.28
2018-05-31T01:05:39.842Z,22.14
2018-05-31T01:06:39.867Z,22.14
2018-05-31T01:07:39.895Z,22.18
2018-05-31T01:08:39.920Z,22.22
2018-05-31T01:09:39.948Z,22.22
2018-05-31T01:10:39.975Z,22.20
2018-05-31T01:11:39.997Z,22.23
2018-05-31T01:12:40.023Z,22.28
2018-05-31T01:13:40.047Z,22.18
2018-05-31T01:14:40.074Z,22.25
2018-05-31T01:15:40.100Z,22.28
2018-05-31T01:16:40.126Z,22.22
2018-05-31T01:17:40.150Z,22.30
2018-05-31T01:18:40.176Z,22.26
2018-05-31T01:19:40.203Z,22.29
2018-05-31T01:20:40.228Z,22.30
2018-05-31T01:21:40.253Z,22.23
2018-05-31T01:22:40.279Z,22.30
2018-05-31T01:23:40.305Z,22.30
2018-05-31T01:24:40.331Z,22.29
2018-05-31T01:25:40.357Z,22.35
2018-05-31T01:26:40.382Z,22.29
2018-05-31T01:27:40.408Z,22.32
2018-05-31T01:28:40.435Z,22.32
2018-05-31T01:29:40.459Z,22.35
2018-05-31T01:30:40.485Z,22.32
2018-05-31T01:31:40.512Z,22.35
2018-05-31T01:32:40.537Z,22.48
2018-05-31T01:33:40.566Z,22.47
2018-05-31T01:34:40.589Z,22.39
2018-05-31T01:35:40.616Z,22.43
2018-05-31T01:36:40.642Z,22.30
2018-05-31T01:37:40.665Z,22.35
2018-05-31T01:38:40.693Z,22.30
2018-05-31T01:39:40.720Z,22.30
2018-05-31T01:40:40.743Z,22.33
2018-05-31T01:41:40.769Z,22.26
2018-05-31T01:42:40.795Z,22.26
2018-05-31T01:43:40.821Z,22.29
2018-05-31T01:44:40.846Z,22.28
2018-05-31T01:45:40.872Z,22.20
2018-05-31T01:46:40.898Z,22.15
2018-05-31T01:47:40.924Z,22.13
2018-05-31T01:48:40.950Z,22.06
2018-05-31T01:49:40.974Z,22.07
2018-05-31T01:50:41.000Z,22.00
2018-05-31T01:51:41.026Z,22.06
2018-05-31T01:52:41.051Z,22.10
2018-05-31T01:53:41.083Z,22.13
2018-05-31T01:54:41.103Z,22.02
2018-05-31T01:55:41.131Z,22.10
2018-05-31T01:56:41.154Z,22.13
2018-05-31T01:57:41.181Z,22.00
2018-05-31T01:58:41.206Z,21.96
2018-05-31T01:59:41.232Z,21.92
2018-05-31T02:00:41.257Z,21.88
2018-05-31T02:01:41.282Z,21.91
2018-05-31T02:02:41.309Z,21.88
2018-05-31T02:03:41.334Z,21.91
2018-05-31T02:04:41.360Z,21.89
2018-05-31T02:05:41.386Z,21.85
2018-05-31T02:06:41.411Z,21.85
2018-05-31T02:07:41.436Z,21.80
2018-05-31T02:08:41.461Z,21.85
2018-05-31T02:09:41.488Z,21.83
2018-05-31T02:10:41.515Z,21.77
2018-05-31T02:11:41.540Z,21.85
2018-05-31T02:12:41.565Z,21.83
2018-05-31T02:13:41.590Z,21.85
2018-05-31T02:14:41.615Z,21.83
2018-05-31T02:15:41.642Z,21.85
2018-05-31T02:16:41.666Z,21.89
2018-05-31T02:17:41.692Z,21.89
2018-05-31T02:18:41.717Z,21.98
2018-05-31T02:19:41.743Z,21.98
2018-05-31T02:20:41.769Z,21.93
2018-05-31T02:21:41.793Z,21.95
2018-05-31T02:22:41.824Z,21.99
2018-05-31T02:23:41.996Z,21.93
2018-05-31T02:24:41.870Z,21.92
2018-05-31T02:25:41.896Z,21.83
2018-05-31T02:26:41.921Z,21.89
2018-05-31T02:27:41.947Z,21.75
2018-05-31T02:28:41.972Z,21.72
2018-05-31T02:29:41.998Z,21.64
2018-05-31T02:30:42.023Z,21.57
2018-05-31T02:31:42.050Z,21.55
2018-05-31T02:32:42.073Z,21.48
2018-05-31T02:33:42.099Z,21.54
2018-05-31T02:34:42.124Z,21.45
2018-05-31T02:35:42.151Z,21.37
2018-05-31T02:36:42.175Z,21.36
2018-05-31T02:37:42.200Z,21.33
2018-05-31T02:38:42.225Z,21.32
2018-05-31T02:39:42.252Z,21.29
2018-05-31T02:40:42.278Z,21.32
2018-05-31T02:41:42.301Z,21.37
2018-05-31T02:42:42.325Z,21.35
2018-05-31T02:43:42.351Z,21.33
2018-05-31T02:44:42.376Z,21.37
2018-05-31T02:45:42.405Z,21.37
2018-05-31T02:46:42.427Z,21.30
2018-05-31T02:47:42.451Z,21.29
2018-05-31T02:48:42.477Z,21.35
2018-05-31T02:49:42.502Z,21.27
2018-05-31T02:50:42.528Z,21.27
2018-05-31T02:51:42.553Z,21.32
2018-05-31T02:52:42.577Z,21.22
2018-05-31T02:53:42.603Z,21.24
2018-05-31T02:54:42.778Z,21.20
2018-05-31T02:55:42.659Z,21.21
2018-05-31T02:56:42.679Z,21.21
2018-05-31T02:57:42.703Z,21.15
2018-05-31T02:58:42.728Z,21.20
2018-05-31T02:59:42.753Z,21.22
2018-05-31T03:00:42.777Z,21.30
2018-05-31T03:01:42.804Z,21.36
2018-05-31T03:02:42.832Z,21.30
2018-05-31T03:03:42.854Z,21.30
2018-05-31T03:04:42.879Z,21.40
2018-05-31T03:05:42.904Z,21.40
2018-05-31T03:06:42.929Z,21.42
2018-05-31T03:07:43.106Z,21.32
2018-05-31T03:08:42.980Z,21.37
2018-05-31T03:09:43.004Z,21.40
2018-05-31T03:10:43.029Z,21.40
2018-05-31T03:11:43.056Z,21.37
2018-05-31T03:12:43.080Z,21.43
2018-05-31T03:13:43.104Z,21.40
2018-05-31T03:14:43.130Z,21.37
2018-05-31T03:15:43.156Z,21.37
2018-05-31T03:16:43.181Z,21.25
2018-05-31T03:17:43.206Z,21.30
2018-05-31T03:18:43.231Z,21.27
2018-05-31T03:19:43.257Z,21.32
2018-05-31T03:20:43.282Z,21.30
2018-05-31T03:21:43.457Z,21.35
2018-05-31T03:22:43.331Z,21.35
2018-05-31T03:23:43.358Z,21.25
2018-05-31T03:24:43.382Z,21.35
2018-05-31T03:25:43.407Z,21.29
2018-05-31T03:26:43.433Z,21.24
2018-05-31T03:27:43.459Z,21.22
2018-05-31T03:28:43.482Z,21.14
2018-05-31T03:29:43.508Z,21.18
2018-05-31T03:30:43.535Z,21.09
2018-05-31T03:31:43.559Z,21.07
2018-05-31T03:32:43.582Z,21.15
2018-05-31T03:33:43.609Z,21.09
2018-05-31T03:34:43.633Z,21.06
2018-05-31T03:35:43.660Z,21.11
2018-05-31T03:36:43.683Z,21.09
2018-05-31T03:37:43.708Z,21.15
2018-05-31T03:38:43.733Z,21.17
2018-05-31T03:39:43.761Z,21.20
2018-05-31T03:40:43.787Z,21.17
2018-05-31T03:41:43.808Z,21.15
2018-05-31T03:42:43.834Z,21.18
2018-05-31T03:43:43.858Z,21.15
2018-05-31T03:44:43.882Z,21.11
2018-05-31T03:45:43.908Z,21.11
2018-05-31T03:46:43.934Z,21.14
2018-05-31T03:47:43.959Z,21.15
2018-05-31T03:48:43.982Z,21.14
2018-05-31T03:49:44.008Z,21.18
2018-05-31T03:50:44.033Z,21.20
2018-05-31T03:51:44.058Z,21.15
2018-05-31T03:52:44.085Z,21.22
2018-05-31T03:53:44.107Z,21.14
2018-05-31T03:54:44.133Z,21.14
2018-05-31T03:55:44.158Z,21.15
2018-05-31T03:56:44.183Z,21.17
2018-05-31T03:57:44.209Z,21.27
2018-05-31T03:58:44.233Z,21.24
2018-05-31T03:59:44.259Z,21.27
2018-05-31T04:00:44.282Z,21.37
2018-05-31T04:01:44.307Z,21.40
2018-05-31T04:02:44.332Z,21.30
2018-05-31T04:03:44.360Z,21.27
2018-05-31T04:04:44.382Z,21.22
2018-05-31T04:05:44.408Z,21.25
2018-05-31T04:06:44.432Z,21.24
2018-05-31T04:07:44.459Z,21.32
2018-05-31T04:08:44.482Z,21.42
2018-05-31T04:09:44.507Z,21.36
2018-05-31T04:10:44.532Z,21.35
2018-05-31T04:11:44.558Z,21.36
2018-05-31T04:12:44.581Z,21.36
2018-05-31T04:13:44.607Z,21.42
2018-05-31T04:14:44.632Z,21.46
2018-05-31T04:15:44.809Z,21.39
2018-05-31T04:16:44.681Z,21.43
2018-05-31T04:17:44.709Z,21.35
2018-05-31T04:18:44.732Z,21.37
2018-05-31T04:19:44.759Z,21.43
2018-05-31T04:20:44.782Z,21.40
2018-05-31T04:21:44.807Z,21.58
2018-05-31T04:22:44.835Z,21.57
2018-05-31T04:23:44.858Z,21.57
2018-05-31T04:24:44.883Z,21.55
2018-05-31T04:25:44.909Z,21.57
2018-05-31T04:26:44.934Z,21.57
2018-05-31T04:27:44.959Z,21.57
2018-05-31T04:28:44.988Z,21.72
2018-05-31T04:29:45.009Z,21.61
2018-05-31T04:30:45.036Z,21.70
2018-05-31T04:31:45.063Z,21.69
2018-05-31T04:32:45.084Z,21.69
2018-05-31T04:33:45.127Z,21.82
2018-05-31T04:34:45.135Z,21.79
2018-05-31T04:35:45.161Z,21.82
2018-05-31T04:36:45.186Z,21.82
2018-05-31T04:37:45.211Z,21.85
2018-05-31T04:38:45.286Z,21.91
2018-05-31T04:39:45.262Z,21.99
2018-05-31T04:40:45.287Z,21.99
2018-05-31T04:41:45.312Z,22.04
2018-05-31T04:42:45.338Z,21.99
2018-05-31T04:43:45.363Z,22.04
2018-05-31T04:44:45.390Z,22.02
2018-05-31T04:45:45.415Z,21.98
2018-05-31T04:46:45.440Z,21.99
2018-05-31T04:47:45.465Z,22.04
2018-05-31T04:48:45.491Z,22.13
2018-05-31T04:49:45.517Z,22.00
2018-05-31T04:50:45.541Z,22.11
2018-05-31T04:51:45.576Z,22.17
2018-05-31T04:52:45.594Z,22.28
2018-05-31T04:53:45.618Z,22.29
2018-05-31T04:54:45.644Z,22.28
2018-05-31T04:55:45.670Z,22.29
2018-05-31T04:56:45.695Z,22.14
2018-05-31T04:57:45.721Z,22.15
2018-05-31T04:58:45.748Z,22.10
2018-05-31T04:59:45.772Z,22.15
2018-05-31T05:00:45.798Z,22.15
2018-05-31T05:01:45.824Z,22.15
2018-05-31T05:02:45.849Z,22.17
2018-05-31T05:03:45.877Z,22.28
2018-05-31T05:04:45.899Z,22.17
2018-05-31T05:05:45.925Z,22.25
2018-05-31T05:06:45.951Z,22.35
2018-05-31T05:07:45.978Z,22.43
2018-05-31T05:08:46.003Z,22.48
2018-05-31T05:09:46.029Z,22.55
2018-05-31T05:10:46.055Z,22.57
2018-05-31T05:11:46.081Z,22.59
2018-05-31T05:12:46.356Z,22.66
2018-05-31T05:13:46.131Z,22.69
2018-05-31T05:14:46.157Z,22.62
2018-05-31T05:15:46.183Z,22.53
2018-05-31T05:16:46.210Z,22.63
2018-05-31T05:17:46.236Z,22.57
2018-05-31T05:18:46.261Z,22.65
2018-05-31T05:19:46.288Z,22.72
2018-05-31T05:20:46.313Z,22.72
2018-05-31T05:21:46.349Z,22.69
2018-05-31T05:22:46.370Z,22.73
2018-05-31T05:23:46.391Z,22.83
2018-05-31T05:24:46.416Z,22.84
2018-05-31T05:25:46.442Z,22.84
2018-05-31T05:26:46.470Z,22.88
2018-05-31T05:27:46.495Z,22.93
2018-05-31T05:28:46.520Z,22.94
2018-05-31T05:29:46.553Z,23.05
2018-05-31T05:30:46.574Z,23.12
2018-05-31T05:31:46.600Z,23.13
2018-05-31T05:32:46.626Z,23.32
2018-05-31T05:33:46.653Z,23.43
2018-05-31T05:34:46.679Z,23.46
2018-05-31T05:35:46.706Z,23.50
2018-05-31T05:36:46.732Z,23.51
2018-05-31T05:37:46.808Z,23.40
2018-05-31T05:38:46.786Z,23.44
2018-05-31T05:39:46.811Z,23.41
2018-05-31T05:40:46.840Z,23.61
2018-05-31T05:41:46.864Z,23.71
2018-05-31T05:42:46.892Z,23.80
2018-05-31T05:43:46.919Z,23.93
2018-05-31T05:44:46.943Z,24.08
2018-05-31T05:45:46.970Z,24.06
2018-05-31T05:46:46.997Z,24.03
2018-05-31T05:47:47.024Z,24.30
2018-05-31T05:48:47.050Z,24.30
2018-05-31T05:49:47.078Z,24.57
2018-05-31T05:50:47.105Z,24.55
2018-05-31T05:51:47.133Z,24.58
2018-05-31T05:52:47.160Z,24.58
2018-05-31T05:53:47.186Z,24.76
2018-05-31T05:54:47.214Z,24.76
2018-05-31T05:55:47.242Z,24.73
2018-05-31T05:56:47.268Z,24.86
2018-05-31T05:57:47.295Z,24.99
2018-05-31T05:58:47.323Z,24.88
2018-05-31T05:59:47.350Z,24.81
2018-05-31T06:00:47.378Z,24.85
2018-05-31T06:01:47.426Z,24.95
2018-05-31T06:02:47.434Z,24.95
2018-05-31T06:03:47.462Z,25.14
2018-05-31T06:04:47.489Z,25.17
2018-05-31T06:05:47.517Z,25.31
2018-05-31T06:06:47.545Z,25.21
2018-05-31T06:07:47.583Z,25.23
2018-05-31T06:08:47.651Z,25.26
2018-05-31T06:09:47.630Z,25.26
2018-05-31T06:10:47.657Z,25.31
2018-05-31T06:11:47.687Z,25.29
2018-05-31T06:12:47.714Z,25.29
2018-05-31T06:13:47.745Z,25.28
2018-05-31T06:14:47.771Z,25.29
2018-05-31T06:15:47.801Z,25.31
2018-05-31T06:16:47.828Z,25.36
2018-05-31T06:17:47.858Z,25.40
2018-05-31T06:18:47.886Z,25.51
2018-05-31T06:19:47.953Z,25.58
2018-05-31T06:20:47.943Z,25.65
2018-05-31T06:21:47.972Z,25.54
2018-05-31T06:22:48.001Z,25.59
2018-05-31T06:23:48.030Z,25.62
2018-05-31T06:24:48.057Z,25.54
2018-05-31T06:25:48.087Z,25.59
2018-05-31T06:26:48.119Z,25.84
2018-05-31T06:27:48.145Z,25.88
2018-05-31T06:28:48.174Z,25.91
2018-05-31T06:29:48.203Z,26.06
2018-05-31T06:30:48.235Z,26.19
2018-05-31T06:31:48.265Z,26.16
2018-05-31T06:32:48.290Z,26.05
2018-05-31T06:33:48.320Z,26.09
2018-05-31T06:34:48.350Z,26.03
2018-05-31T06:35:48.380Z,26.06
2018-05-31T06:36:48.408Z,26.16
2018-05-31T06:37:48.437Z,26.07
2018-05-31T06:38:48.469Z,26.09
2018-05-31T06:39:48.497Z,26.05
2018-05-31T06:40:48.527Z,26.03
2018-05-31T06:41:48.557Z,25.93
2018-05-31T06:42:48.585Z,25.95
2018-05-31T06:43:48.615Z,25.90
2018-05-31T06:44:48.649Z,25.85
2018-05-31T06:45:48.778Z,25.87
2018-05-31T06:46:48.704Z,25.93
2018-05-31T06:47:48.735Z,26.02
2018-05-31T06:48:48.761Z,26.07
2018-05-31T06:49:48.792Z,26.05
2018-05-31T06:50:48.821Z,26.29
2018-05-31T06:51:48.851Z,26.38
2018-05-31T06:52:48.879Z,26.48
2018-05-31T06:53:48.910Z,26.45
2018-05-31T06:54:48.938Z,26.56
2018-05-31T06:55:48.968Z,26.45
2018-05-31T06:56:48.998Z,26.55
2018-05-31T06:57:49.027Z,26.55
2018-05-31T06:58:49.056Z,26.71
2018-05-31T06:59:49.087Z,26.78
2018-05-31T07:00:49.178Z,26.60
2018-05-31T07:01:49.148Z,26.78
2018-05-31T07:02:49.175Z,26.68
2018-05-31T07:03:49.206Z,26.63
2018-05-31T07:04:49.235Z,26.88
2018-05-31T07:05:49.264Z,26.74
2018-05-31T07:06:49.307Z,26.97
2018-05-31T07:07:49.330Z,26.95
2018-05-31T07:08:49.359Z,27.02
2018-05-31T07:09:49.393Z,26.93
2018-05-31T07:10:49.415Z,27.08
2018-05-31T07:11:49.445Z,26.93
2018-05-31T07:12:49.475Z,26.95
2018-05-31T07:13:49.505Z,26.85
2018-05-31T07:14:49.535Z,26.97
2018-05-31T07:15:49.582Z,26.92
2018-05-31T07:16:49.596Z,26.93
2018-05-31T07:17:49.627Z,26.99
2018-05-31T07:18:49.657Z,27.02
2018-05-31T07:19:49.687Z,27.20
2018-05-31T07:20:49.717Z,27.26
2018-05-31T07:21:49.780Z,27.22
2018-05-31T07:22:49.779Z,27.39
2018-05-31T07:23:49.810Z,27.58
2018-05-31T07:24:49.839Z,27.70
2018-05-31T07:25:49.871Z,27.80
2018-05-31T07:26:49.902Z,27.78
2018-05-31T07:27:49.932Z,27.67
2018-05-31T07:28:49.962Z,27.77
2018-05-31T07:29:49.994Z,27.74
2018-05-31T07:30:50.024Z,27.78
2018-05-31T07:31:50.055Z,27.93
2018-05-31T07:32:50.085Z,27.80
2018-05-31T07:33:50.117Z,27.83
2018-05-31T07:34:50.147Z,27.73
2018-05-31T07:35:50.179Z,27.70
2018-05-31T07:36:50.208Z,27.65
2018-05-31T07:37:50.240Z,27.73
2018-05-31T07:38:50.270Z,27.55
2018-05-31T07:39:50.301Z,27.54
2018-05-31T07:40:50.332Z,27.55
2018-05-31T07:41:50.362Z,27.44
2018-05-31T07:42:50.393Z,27.35
2018-05-31T07:43:50.424Z,27.35
2018-05-31T07:44:50.453Z,27.37
2018-05-31T07:45:50.485Z,27.49
2018-05-31T07:46:50.516Z,27.39
2018-05-31T07:47:50.546Z,27.26
2018-05-31T07:48:50.576Z,27.14
2018-05-31T07:49:50.606Z,27.33
2018-05-31T07:50:50.637Z,27.36
2018-05-31T07:51:50.668Z,27.48
2018-05-31T07:52:50.697Z,27.44
2018-05-31T07:53:50.727Z,27.63
2018-05-31T07:54:50.758Z,27.58
2018-05-31T07:55:50.788Z,27.68
2018-05-31T07:56:50.818Z,27.80
2018-05-31T07:57:50.848Z,27.86
2018-05-31T07:58:50.879Z,27.67
2018-05-31T07:59:50.909Z,27.59
2018-05-31T08:00:50.938Z,27.42
2018-05-31T08:01:50.968Z,27.30
2018-05-31T08:02:50.998Z,27.17
2018-05-31T08:03:51.030Z,27.26
2018-05-31T08:04:51.058Z,27.40
2018-05-31T08:05:51.139Z,27.47
2018-05-31T08:06:51.119Z,27.52
2018-05-31T08:07:51.148Z,27.60
2018-05-31T08:08:51.177Z,27.65
2018-05-31T08:09:51.207Z,27.78
2018-05-31T08:10:51.237Z,27.65
2018-05-31T08:11:51.269Z,27.40
2018-05-31T08:12:51.297Z,27.59
2018-05-31T08:13:51.327Z,27.58
2018-05-31T08:14:51.357Z,27.68
2018-05-31T08:15:51.388Z,27.73
2018-05-31T08:16:51.417Z,27.74
2018-05-31T08:17:51.445Z,27.75
2018-05-31T08:18:51.476Z,27.71
2018-05-31T08:19:51.505Z,27.78
2018-05-31T08:20:51.534Z,27.75
2018-05-31T08:21:51.767Z,28.01
2018-05-31T08:22:51.595Z,28.08
2018-05-31T08:23:51.624Z,28.23
2018-05-31T08:24:51.653Z,28.29
2018-05-31T08:25:51.683Z,28.29
2018-05-31T08:26:51.713Z,28.04
2018-05-31T08:27:51.745Z,28.07
2018-05-31T08:28:51.772Z,28.00
2018-05-31T08:29:51.802Z,28.07
2018-05-31T08:30:51.833Z,27.92
2018-05-31T08:31:51.864Z,28.07
2018-05-31T08:32:51.897Z,28.20
2018-05-31T08:33:51.921Z,28.30
2018-05-31T08:34:51.952Z,28.67
2018-05-31T08:35:51.983Z,28.81
2018-05-31T08:36:52.010Z,28.66
2018-05-31T08:37:52.041Z,28.45
2018-05-31T08:38:52.095Z,28.39
2018-05-31T08:39:52.103Z,28.51
2018-05-31T08:40:52.131Z,28.51
2018-05-31T08:41:52.160Z,28.51
2018-05-31T08:42:52.190Z,28.44
2018-05-31T08:43:52.221Z,28.62
2018-05-31T08:44:52.250Z,28.72
2018-05-31T08:45:52.279Z,28.62
2018-05-31T08:46:52.310Z,28.64
2018-05-31T08:47:52.340Z,28.82
2018-05-31T08:48:52.370Z,28.96
2018-05-31T08:49:52.400Z,28.96
2018-05-31T08:50:52.432Z,28.85
2018-05-31T08:51:52.460Z,28.63
2018-05-31T08:52:52.490Z,28.62
2018-05-31T08:53:52.519Z,28.56
2018-05-31T08:54:52.550Z,28.63
2018-05-31T08:55:52.580Z,28.70
2018-05-31T08:56:52.609Z,28.85
2018-05-31T08:57:52.641Z,29.01
2018-05-31T08:58:52.670Z,29.04
2018-05-31T08:59:52.702Z,29.02
2018-05-31T09:00:52.734Z,29.07
2018-05-31T09:01:52.762Z,28.98
2018-05-31T09:02:52.790Z,28.98
2018-05-31T09:03:52.822Z,28.86
2018-05-31T09:04:52.850Z,28.98
2018-05-31T09:05:52.879Z,29.08
2018-05-31T09:06:52.910Z,28.85
2018-05-31T09:07:52.941Z,28.86
2018-05-31T09:08:52.970Z,28.86
2018-05-31T09:09:53.000Z,28.96
2018-05-31T09:10:53.030Z,29.02
2018-05-31T09:11:53.060Z,29.12
2018-05-31T09:12:53.140Z,29.14
2018-05-31T09:13:53.120Z,29.27
2018-05-31T09:14:53.152Z,29.31
2018-05-31T09:15:53.182Z,29.41
2018-05-31T09:16:53.211Z,29.39
2018-05-31T09:17:53.242Z,29.54
2018-05-31T09:18:53.271Z,29.49
2018-05-31T09:19:53.301Z,29.35
2018-05-31T09:20:53.335Z,29.39
2018-05-31T09:21:53.382Z,29.41
2018-05-31T09:22:53.392Z,29.45
2018-05-31T09:23:53.422Z,29.36
2018-05-31T09:24:53.452Z,29.38
2018-05-31T09:25:53.486Z,29.51
2018-05-31T09:26:53.512Z,29.49
2018-05-31T09:27:53.543Z,29.50
2018-05-31T09:28:53.574Z,29.53
2018-05-31T09:29:53.604Z,29.35
2018-05-31T09:30:53.635Z,29.27
2018-05-31T09:31:53.666Z,29.41
2018-05-31T09:32:53.693Z,29.36
2018-05-31T09:33:53.724Z,29.39
2018-05-31T09:34:53.757Z,29.39
2018-05-31T09:35:53.788Z,28.98
2018-05-31T09:36:53.815Z,29.02
2018-05-31T09:37:53.846Z,28.72
2018-05-31T09:38:53.877Z,28.78
2018-05-31T09:39:53.909Z,28.89
2018-05-31T09:40:53.937Z,29.08
2018-05-31T09:41:53.967Z,29.27
2018-05-31T09:42:53.998Z,29.19
2018-05-31T09:43:54.029Z,29.08
2018-05-31T09:44:54.057Z,29.02
2018-05-31T09:45:54.089Z,28.86
2018-05-31T09:46:54.118Z,28.81
2018-05-31T09:47:54.154Z,28.76
2018-05-31T09:48:54.183Z,28.79
2018-05-31T09:49:54.210Z,28.72
2018-05-31T09:50:54.240Z,28.84
2018-05-31T09:51:54.274Z,28.75
2018-05-31T09:52:54.300Z,28.74
2018-05-31T09:53:54.330Z,28.81
2018-05-31T09:54:54.362Z,28.97
2018-05-31T09:55:54.391Z,29.16
2018-05-31T09:56:54.423Z,29.35
2018-05-31T09:57:54.451Z,29.66
2018-05-31T09:58:54.481Z,29.61
2018-05-31T09:59:54.512Z,29.38
2018-05-31T10:00:54.540Z,29.24
2018-05-31T10:01:54.575Z,29.27
2018-05-31T10:02:54.602Z,29.05
2018-05-31T10:03:54.632Z,29.02
2018-05-31T10:04:54.663Z,29.05
2018-05-31T10:05:54.692Z,29.24
2018-05-31T10:06:54.725Z,29.44
2018-05-31T10:07:54.752Z,29.69
2018-05-31T10:08:54.805Z,29.78
2018-05-31T10:09:54.815Z,29.81
2018-05-31T10:10:54.844Z,29.91
2018-05-31T10:11:54.874Z,30.00
2018-05-31T10:12:54.903Z,30.08
2018-05-31T10:13:54.934Z,30.08
2018-05-31T10:14:54.964Z,30.05
2018-05-31T10:15:54.997Z,29.97
2018-05-31T10:16:55.026Z,29.97
2018-05-31T10:17:55.056Z,29.78
2018-05-31T10:18:55.087Z,29.69
2018-05-31T10:19:55.118Z,29.60
2018-05-31T10:20:55.146Z,29.56
2018-05-31T10:21:55.178Z,29.61
2018-05-31T10:22:55.209Z,29.79
2018-05-31T10:23:55.239Z,29.82
2018-05-31T10:24:55.268Z,29.57
2018-05-31T10:25:55.299Z,29.27
2018-05-31T10:26:55.338Z,29.22
2018-05-31T10:27:55.361Z,29.05
2018-05-31T10:28:55.390Z,29.02
2018-05-31T10:29:55.421Z,29.07
2018-05-31T10:30:55.453Z,29.14
2018-05-31T10:31:55.483Z,29.04
2018-05-31T10:32:55.512Z,29.08
2018-05-31T10:33:55.543Z,29.04
2018-05-31T10:34:55.573Z,29.12
2018-05-31T10:35:55.604Z,29.26
2018-05-31T10:36:55.634Z,29.51
2018-05-31T10:37:55.663Z,29.66
2018-05-31T10:38:55.694Z,29.90
2018-05-31T10:39:55.726Z,29.87
2018-05-31T10:40:55.755Z,29.78
2018-05-31T10:41:55.785Z,29.61
2018-05-31T10:42:55.816Z,29.47
2018-05-31T10:43:55.848Z,29.45
2018-05-31T10:44:55.876Z,29.47
2018-05-31T10:45:55.907Z,29.41
2018-05-31T10:46:55.939Z,29.26
2018-05-31T10:47:55.968Z,29.19
2018-05-31T10:48:55.997Z,29.26
2018-05-31T10:49:56.028Z,29.24
2018-05-31T10:50:56.058Z,29.36
2018-05-31T10:51:56.093Z,29.54
2018-05-31T10:52:56.128Z,29.60
2018-05-31T10:53:56.150Z,29.81
2018-05-31T10:54:56.180Z,29.97
2018-05-31T10:55:56.219Z,29.97
2018-05-31T10:56:56.241Z,30.19
2018-05-31T10:57:56.271Z,30.18
2018-05-31T10:58:56.302Z,30.27
2018-05-31T10:59:56.333Z,30.06
2018-05-31T11:00:56.364Z,30.00
2018-05-31T11:01:56.394Z,29.69
2018-05-31T11:02:56.425Z,29.50
2018-05-31T11:03:56.456Z,29.53
2018-05-31T11:04:57.538Z,29.51
2018-05-31T11:05:56.517Z,29.27
2018-05-31T11:06:56.546Z,29.29
2018-05-31T11:07:56.577Z,29.35
2018-05-31T11:08:56.608Z,29.41
2018-05-31T11:09:56.637Z,29.32
2018-05-31T11:10:56.669Z,29.39
2018-05-31T11:11:56.702Z,29.47
2018-05-31T11:12:56.728Z,29.65
2018-05-31T11:13:56.793Z,29.76
2018-05-31T11:14:56.839Z,30.05
2018-05-31T11:15:56.822Z,30.31
2018-05-31T11:16:56.850Z,30.12
2018-05-31T11:17:56.882Z,29.82
2018-05-31T11:18:56.913Z,29.90
2018-05-31T11:19:56.943Z,29.86
2018-05-31T11:20:56.972Z,29.79
2018-05-31T11:21:57.003Z,29.73
2018-05-31T11:22:57.034Z,29.65
2018-05-31T11:23:57.065Z,29.66
2018-05-31T11:24:57.095Z,29.91
2018-05-31T11:25:57.126Z,30.05
2018-05-31T11:26:57.157Z,30.06
2018-05-31T11:27:57.191Z,30.16
2018-05-31T11:28:57.219Z,30.08
2018-05-31T11:29:57.248Z,30.12
2018-05-31T11:30:57.279Z,30.02
2018-05-31T11:31:57.311Z,30.00
2018-05-31T11:32:57.341Z,30.02
2018-05-31T11:33:57.371Z,29.97
2018-05-31T11:34:57.402Z,29.75
2018-05-31T11:35:57.433Z,29.69
2018-05-31T11:36:57.463Z,29.71
2018-05-31T11:37:57.494Z,29.79
2018-05-31T11:38:57.525Z,29.81
2018-05-31T11:39:57.555Z,29.88
2018-05-31T11:40:57.589Z,29.87
2018-05-31T11:41:57.616Z,29.91
2018-05-31T11:42:57.652Z,29.82
2018-05-31T11:43:57.679Z,29.81
2018-05-31T11:44:57.709Z,29.63
2018-05-31T11:45:57.739Z,29.68
2018-05-31T11:46:57.770Z,29.66
2018-05-31T11:47:57.800Z,29.50
2018-05-31T11:48:57.831Z,29.51
2018-05-31T11:49:57.861Z,29.36
2018-05-31T11:50:57.892Z,29.53
2018-05-31T11:51:57.923Z,29.66
2018-05-31T11:52:57.952Z,29.56
2018-05-31T11:53:57.983Z,29.56
2018-05-31T11:54:58.014Z,29.44
2018-05-31T11:55:58.045Z,29.39
2018-05-31T11:56:58.075Z,29.38
2018-05-31T11:57:58.105Z,29.47
2018-05-31T11:58:58.136Z,29.50
2018-05-31T11:59:58.168Z,29.39
2018-05-31T12:00:58.200Z,29.35
2018-05-31T12:01:58.227Z,29.35
2018-05-31T12:02:58.258Z,29.24
2018-05-31T12:03:58.343Z,29.34
2018-05-31T12:04:58.669Z,29.50
2018-05-31T12:05:58.349Z,29.50
2018-05-31T12:06:58.383Z,29.53
2018-05-31T12:07:58.410Z,29.61
2018-05-31T12:08:58.442Z,29.75
2018-05-31T12:09:58.471Z,29.68
2018-05-31T12:10:58.503Z,29.72
2018-05-31T12:11:58.532Z,29.73
2018-05-31T12:12:58.561Z,29.75
2018-05-31T12:13:58.596Z,29.68
2018-05-31T12:14:58.622Z,29.68
2018-05-31T12:15:58.653Z,29.76
2018-05-31T12:16:58.683Z,29.41
2018-05-31T12:17:58.719Z,29.38
2018-05-31T12:18:58.745Z,29.31
2018-05-31T12:19:58.778Z,29.35
2018-05-31T12:20:58.805Z,29.44
2018-05-31T12:21:58.842Z,29.35
2018-05-31T12:22:58.867Z,29.51
2018-05-31T12:23:58.897Z,29.47
2018-05-31T12:24:58.928Z,29.50
2018-05-31T12:25:58.958Z,29.59
2018-05-31T12:26:58.988Z,29.65
2018-05-31T12:27:59.018Z,29.78
2018-05-31T12:28:59.048Z,29.87
2018-05-31T12:29:59.132Z,29.97
2018-05-31T12:30:59.109Z,29.87
2018-05-31T12:31:59.141Z,29.69
2018-05-31T12:32:59.170Z,29.53
2018-05-31T12:33:59.200Z,29.63
2018-05-31T12:34:59.231Z,29.57
2018-05-31T12:35:59.262Z,29.65
2018-05-31T12:36:59.292Z,29.78
2018-05-31T12:37:59.322Z,29.82
2018-05-31T12:38:59.353Z,29.90
2018-05-31T12:39:59.383Z,29.93
2018-05-31T12:40:59.413Z,30.02
2018-05-31T12:41:59.448Z,29.97
2018-05-31T12:42:59.475Z,29.86
2018-05-31T12:43:59.508Z,29.72
2018-05-31T12:44:59.535Z,29.72
2018-05-31T12:45:59.570Z,29.81
2018-05-31T12:46:59.598Z,29.95
2018-05-31T12:47:59.627Z,30.02
2018-05-31T12:48:59.658Z,29.95
2018-05-31T12:49:59.688Z,29.95
2018-05-31T12:50:59.718Z,30.09
2018-05-31T12:51:59.750Z,30.03
2018-05-31T12:52:59.783Z,29.94